sensor_id;sensor_type;location;lat;lon;timestamp;pressure;altitude;pressure_sealevel;temperature;humidity
72409;BME280;60402;48.082;11.628;2023-10-08T00:00:00;96145.97;;;16.48;40.72
72409;BME280;60402;48.082;11.628;2023-10-08T00:03:05;96137.72;;;16.50;40.73
72409;BME280;60402;48.082;11.628;2023-10-08T00:05:51;96135.47;;;16.45;40.79
72409;BME280;60402;48.082;11.628;2023-10-08T00:08:37;96141.94;;;16.67;40.82
72409;BME280;60402;48.082;11.628;2023-10-08T00:11:22;96137.81;;;16.68;40.77
72409;BME280;60402;48.082;11.628;2023-10-08T00:14:08;96114.03;;;16.71;40.94
72409;BME280;60402;48.082;11.628;2023-10-08T00:16:55;96115.34;;;16.79;40.64
72409;BME280;60402;48.082;11.628;2023-10-08T00:19:40;96098.88;;;16.83;41.12
72409;BME280;60402;48.082;11.628;2023-10-08T00:22:28;96095.19;;;16.74;41.28
72409;BME280;60402;48.082;11.628;2023-10-08T00:25:17;96095.06;;;16.77;41.21
72409;BME280;60402;48.082;11.628;2023-10-08T00:28:02;96089.88;;;16.85;41.03
72409;BME280;60402;48.082;11.628;2023-10-08T00:30:48;96099.25;;;16.95;41.25
72409;BME280;60402;48.082;11.628;2023-10-08T00:33:35;96098.13;;;17.01;41.12
72409;BME280;60402;48.082;11.628;2023-10-08T00:36:22;96087.22;;;17.09;40.75
72409;BME280;60402;48.082;11.628;2023-10-08T00:39:10;96081.97;;;17.17;40.71
72409;BME280;60402;48.082;11.628;2023-10-08T00:42:00;96070.72;;;17.04;40.91
72409;BME280;60402;48.082;11.628;2023-10-08T00:44:50;96077.06;;;17.17;40.92
72409;BME280;60402;48.082;11.628;2023-10-08T00:47:40;96084.22;;;17.31;41.19
72409;BME280;60402;48.082;11.628;2023-10-08T00:50:29;96081.69;;;17.33;41.30
72409;BME280;60402;48.082;11.628;2023-10-08T00:53:28;96089.16;;;17.40;41.02
72409;BME280;60402;48.082;11.628;2023-10-08T00:56:14;96078.22;;;17.47;40.97
72409;BME280;60402;48.082;11.628;2023-10-08T00:59:04;96070.91;;;17.37;40.85
72409;BME280;60402;48.082;11.628;2023-10-08T01:01:52;96073.91;;;17.43;41.48
72409;BME280;60402;48.082;11.628;2023-10-08T01:04:44;96072.97;;;17.46;41.16
72409;BME280;60402;48.082;11.628;2023-10-08T01:07:30;96054.06;;;17.48;41.23
72409;BME280;60402;48.082;11.628;2023-10-08T01:10:16;96056.63;;;17.46;41.36
72409;BME280;60402;48.082;11.628;2023-10-08T01:13:05;96058.22;;;17.47;41.52
72409;BME280;60402;48.082;11.628;2023-10-08T01:15:57;96050.44;;;17.48;41.48
72409;BME280;60402;48.082;11.628;2023-10-08T01:18:43;96043.78;;;17.51;41.50
72409;BME280;60402;48.082;11.628;2023-10-08T01:21:35;96064.22;;;17.68;41.57
72409;BME280;60402;48.082;11.628;2023-10-08T01:24:25;96076.94;;;17.67;41.45
72409;BME280;60402;48.082;11.628;2023-10-08T01:27:12;96077.44;;;17.74;41.48
72409;BME280;60402;48.082;11.628;2023-10-08T01:29:58;96063.44;;;17.67;41.62
72409;BME280;60402;48.082;11.628;2023-10-08T01:32:54;96051.06;;;17.61;41.51
72409;BME280;60402;48.082;11.628;2023-10-08T01:35:41;96076.00;;;17.79;41.69
72409;BME280;60402;48.082;11.628;2023-10-08T01:38:27;96053.91;;;17.61;41.78
72409;BME280;60402;48.082;11.628;2023-10-08T01:41:13;96051.69;;;17.56;41.73
72409;BME280;60402;48.082;11.628;2023-10-08T01:44:05;96037.41;;;17.56;41.39
72409;BME280;60402;48.082;11.628;2023-10-08T01:46:53;96048.66;;;17.69;41.32
72409;BME280;60402;48.082;11.628;2023-10-08T01:49:43;96061.88;;;17.75;41.10
72409;BME280;60402;48.082;11.628;2023-10-08T01:52:31;96066.94;;;17.71;41.33
72409;BME280;60402;48.082;11.628;2023-10-08T01:55:17;96062.78;;;17.72;41.10
72409;BME280;60402;48.082;11.628;2023-10-08T01:58:04;96046.00;;;17.74;40.58
72409;BME280;60402;48.082;11.628;2023-10-08T02:00:50;96042.78;;;17.72;40.46
72409;BME280;60402;48.082;11.628;2023-10-08T02:03:37;96056.00;;;17.79;40.19
72409;BME280;60402;48.082;11.628;2023-10-08T02:06:23;96056.31;;;17.81;40.02
72409;BME280;60402;48.082;11.628;2023-10-08T02:09:09;96037.06;;;17.63;39.78
72409;BME280;60402;48.082;11.628;2023-10-08T02:11:55;96040.56;;;17.67;39.96
72409;BME280;60402;48.082;11.628;2023-10-08T02:14:41;96045.78;;;17.69;39.71
72409;BME280;60402;48.082;11.628;2023-10-08T02:17:27;96045.63;;;17.72;39.54
72409;BME280;60402;48.082;11.628;2023-10-08T02:20:13;96052.31;;;17.87;39.37
72409;BME280;60402;48.082;11.628;2023-10-08T02:23:01;96039.94;;;17.81;39.49
72409;BME280;60402;48.082;11.628;2023-10-08T02:25:47;96051.88;;;17.80;39.70
72409;BME280;60402;48.082;11.628;2023-10-08T02:28:33;96031.34;;;17.72;39.93
72409;BME280;60402;48.082;11.628;2023-10-08T02:31:19;96023.91;;;17.75;39.99
72409;BME280;60402;48.082;11.628;2023-10-08T02:34:07;96029.75;;;17.71;39.86
72409;BME280;60402;48.082;11.628;2023-10-08T02:36:57;96032.47;;;17.66;40.05
72409;BME280;60402;48.082;11.628;2023-10-08T02:39:43;96029.78;;;17.62;40.24
72409;BME280;60402;48.082;11.628;2023-10-08T02:42:29;96034.22;;;17.63;40.62
72409;BME280;60402;48.082;11.628;2023-10-08T02:45:14;96027.41;;;17.60;40.83
72409;BME280;60402;48.082;11.628;2023-10-08T02:48:02;96023.13;;;17.56;40.68
72409;BME280;60402;48.082;11.628;2023-10-08T02:50:48;96020.91;;;17.51;40.84
72409;BME280;60402;48.082;11.628;2023-10-08T02:53:33;96019.63;;;17.52;40.77
72409;BME280;60402;48.082;11.628;2023-10-08T02:56:19;96021.22;;;17.62;40.56
72409;BME280;60402;48.082;11.628;2023-10-08T02:59:04;96025.00;;;17.59;40.28
72409;BME280;60402;48.082;11.628;2023-10-08T03:01:53;96025.97;;;17.56;40.61
72409;BME280;60402;48.082;11.628;2023-10-08T03:04:42;96010.09;;;17.55;40.30
72409;BME280;60402;48.082;11.628;2023-10-08T03:07:30;96018.97;;;17.66;40.46
72409;BME280;60402;48.082;11.628;2023-10-08T03:10:21;96000.72;;;17.54;40.34
72409;BME280;60402;48.082;11.628;2023-10-08T03:13:08;96019.78;;;17.57;40.40
72409;BME280;60402;48.082;11.628;2023-10-08T03:15:55;95999.50;;;17.46;40.13
72409;BME280;60402;48.082;11.628;2023-10-08T03:18:43;96022.78;;;17.54;40.39
72409;BME280;60402;48.082;11.628;2023-10-08T03:21:35;96014.88;;;17.40;40.67
72409;BME280;60402;48.082;11.628;2023-10-08T03:24:23;96013.59;;;17.41;40.48
72409;BME280;60402;48.082;11.628;2023-10-08T03:27:16;96005.19;;;17.37;40.98
72409;BME280;60402;48.082;11.628;2023-10-08T03:30:06;96003.59;;;17.36;41.28
72409;BME280;60402;48.082;11.628;2023-10-08T03:32:52;95997.59;;;17.25;41.62
72409;BME280;60402;48.082;11.628;2023-10-08T03:35:41;95996.63;;;17.28;41.61
72409;BME280;60402;48.082;11.628;2023-10-08T03:38:28;96003.28;;;17.34;41.40
72409;BME280;60402;48.082;11.628;2023-10-08T03:41:29;95995.50;;;17.34;41.61
72409;BME280;60402;48.082;11.628;2023-10-08T03:44:15;95991.09;;;17.24;41.61
72409;BME280;60402;48.082;11.628;2023-10-08T03:47:02;96002.03;;;17.26;42.02
72409;BME280;60402;48.082;11.628;2023-10-08T03:49:55;96005.06;;;17.22;42.33
72409;BME280;60402;48.082;11.628;2023-10-08T03:52:41;96009.94;;;17.31;42.18
72409;BME280;60402;48.082;11.628;2023-10-08T03:55:28;95999.78;;;17.39;42.38
72409;BME280;60402;48.082;11.628;2023-10-08T03:58:20;95983.94;;;17.10;42.51
72409;BME280;60402;48.082;11.628;2023-10-08T04:01:16;96007.28;;;17.18;43.18
72409;BME280;60402;48.082;11.628;2023-10-08T04:04:05;96006.63;;;17.14;43.34
72409;BME280;60402;48.082;11.628;2023-10-08T04:06:51;95999.34;;;17.04;43.56
72409;BME280;60402;48.082;11.628;2023-10-08T04:09:40;96002.50;;;16.97;44.11
72409;BME280;60402;48.082;11.628;2023-10-08T04:12:27;95993.47;;;16.89;44.58
72409;BME280;60402;48.082;11.628;2023-10-08T04:15:13;96010.25;;;16.96;44.46
72409;BME280;60402;48.082;11.628;2023-10-08T04:18:01;96006.75;;;16.92;44.25
72409;BME280;60402;48.082;11.628;2023-10-08T04:20:48;96008.81;;;16.92;44.59
72409;BME280;60402;48.082;11.628;2023-10-08T04:23:47;96000.25;;;16.82;44.45
72409;BME280;60402;48.082;11.628;2023-10-08T04:26:37;95994.69;;;16.79;45.12
72409;BME280;60402;48.082;11.628;2023-10-08T04:29:26;95998.03;;;16.77;45.21
72409;BME280;60402;48.082;11.628;2023-10-08T04:32:16;95995.66;;;16.76;45.32
72409;BME280;60402;48.082;11.628;2023-10-08T04:35:10;95999.59;;;16.78;45.49
72409;BME280;60402;48.082;11.628;2023-10-08T04:38:00;96014.84;;;16.84;45.77
72409;BME280;60402;48.082;11.628;2023-10-08T04:40:45;96007.38;;;16.78;45.72
72409;BME280;60402;48.082;11.628;2023-10-08T04:43:35;96008.03;;;16.82;46.12
72409;BME280;60402;48.082;11.628;2023-10-08T04:46:24;95996.09;;;16.74;46.41
72409;BME280;60402;48.082;11.628;2023-10-08T04:49:24;95998.03;;;16.77;46.54
72409;BME280;60402;48.082;11.628;2023-10-08T04:52:13;95988.63;;;16.68;46.53
72409;BME280;60402;48.082;11.628;2023-10-08T04:54:59;95981.34;;;16.67;46.64
72409;BME280;60402;48.082;11.628;2023-10-08T04:57:57;95998.31;;;16.70;47.32
72409;BME280;60402;48.082;11.628;2023-10-08T05:00:45;95990.34;;;16.65;46.99
72409;BME280;60402;48.082;11.628;2023-10-08T05:03:40;96008.78;;;16.73;46.90
72409;BME280;60402;48.082;11.628;2023-10-08T05:06:40;95998.13;;;16.65;47.03
72409;BME280;60402;48.082;11.628;2023-10-08T05:09:36;96012.94;;;16.72;47.46
72409;BME280;60402;48.082;11.628;2023-10-08T05:12:31;96007.78;;;16.58;47.94
72409;BME280;60402;48.082;11.628;2023-10-08T05:15:36;96024.13;;;16.67;48.68
72409;BME280;60402;48.082;11.628;2023-10-08T05:18:26;96009.50;;;16.55;49.04
72409;BME280;60402;48.082;11.628;2023-10-08T05:21:32;96008.41;;;16.53;49.18
72409;BME280;60402;48.082;11.628;2023-10-08T05:24:36;96002.34;;;16.42;50.28
72409;BME280;60402;48.082;11.628;2023-10-08T05:27:26;96029.47;;;16.55;49.97
72409;BME280;60402;48.082;11.628;2023-10-08T05:30:25;96030.75;;;16.54;50.65
72409;BME280;60402;48.082;11.628;2023-10-08T05:33:23;96028.81;;;16.42;50.96
72409;BME280;60402;48.082;11.628;2023-10-08T05:36:13;96022.81;;;16.49;51.60
72409;BME280;60402;48.082;11.628;2023-10-08T05:39:04;96022.81;;;16.49;51.95
72409;BME280;60402;48.082;11.628;2023-10-08T05:42:10;96044.84;;;16.49;53.10
72409;BME280;60402;48.082;11.628;2023-10-08T05:45:00;96062.03;;;16.67;53.06
72409;BME280;60402;48.082;11.628;2023-10-08T05:47:55;96072.13;;;16.59;54.36
72409;BME280;60402;48.082;11.628;2023-10-08T05:51:06;96072.25;;;16.46;54.70
72409;BME280;60402;48.082;11.628;2023-10-08T05:53:58;96080.41;;;16.26;54.47
72409;BME280;60402;48.082;11.628;2023-10-08T05:56:44;96096.28;;;16.36;53.23
72409;BME280;60402;48.082;11.628;2023-10-08T05:59:50;96093.72;;;16.29;53.31
72409;BME280;60402;48.082;11.628;2023-10-08T06:02:42;96117.38;;;16.39;53.07
72409;BME280;60402;48.082;11.628;2023-10-08T06:05:31;96117.38;;;16.39;53.49
72409;BME280;60402;48.082;11.628;2023-10-08T06:08:29;96110.06;;;16.28;52.25
72409;BME280;60402;48.082;11.628;2023-10-08T06:11:35;96128.66;;;16.42;51.98
72409;BME280;60402;48.082;11.628;2023-10-08T06:14:24;96150.72;;;16.51;51.66
72409;BME280;60402;48.082;11.628;2023-10-08T06:17:27;96146.63;;;16.52;52.02
72409;BME280;60402;48.082;11.628;2023-10-08T06:20:41;96146.31;;;16.59;52.00
72409;BME280;60402;48.082;11.628;2023-10-08T06:23:30;96125.38;;;16.53;51.17
72409;BME280;60402;48.082;11.628;2023-10-08T06:26:20;96134.22;;;16.77;50.28
72409;BME280;60402;48.082;11.628;2023-10-08T06:29:10;96139.44;;;16.78;49.34
72409;BME280;60402;48.082;11.628;2023-10-08T06:32:12;96155.53;;;16.94;48.29
72409;BME280;60402;48.082;11.628;2023-10-08T06:34:58;96153.31;;;16.89;48.91
72409;BME280;60402;48.082;11.628;2023-10-08T06:37:45;96155.09;;;17.05;49.14
72409;BME280;60402;48.082;11.628;2023-10-08T06:40:31;96144.81;;;17.17;48.94
72409;BME280;60402;48.082;11.628;2023-10-08T06:43:22;96146.75;;;17.29;48.88
72409;BME280;60402;48.082;11.628;2023-10-08T06:46:10;96130.25;;;17.33;48.49
72409;BME280;60402;48.082;11.628;2023-10-08T06:48:58;96141.56;;;17.46;47.78
72409;BME280;60402;48.082;11.628;2023-10-08T06:51:44;96135.22;;;17.60;47.11
72409;BME280;60402;48.082;11.628;2023-10-08T06:54:30;96130.78;;;17.86;46.36
72409;BME280;60402;48.082;11.628;2023-10-08T06:57:16;96129.97;;;17.86;45.96
72409;BME280;60402;48.082;11.628;2023-10-08T07:00:06;96110.72;;;18.14;45.13
72409;BME280;60402;48.082;11.628;2023-10-08T07:02:57;96133.34;;;18.73;44.01
72409;BME280;60402;48.082;11.628;2023-10-08T07:05:45;96133.06;;;18.95;43.51
72409;BME280;60402;48.082;11.628;2023-10-08T07:08:39;96134.22;;;19.45;42.77
72409;BME280;60402;48.082;11.628;2023-10-08T07:11:28;96158.41;;;19.77;42.78
72409;BME280;60402;48.082;11.628;2023-10-08T07:14:13;96159.88;;;20.26;42.22
72409;BME280;60402;48.082;11.628;2023-10-08T07:17:00;96141.56;;;20.98;40.49
72409;BME280;60402;48.082;11.628;2023-10-08T07:19:46;96121.31;;;21.57;38.92
72409;BME280;60402;48.082;11.628;2023-10-08T07:22:36;96130.34;;;21.90;37.63
72409;BME280;60402;48.082;11.628;2023-10-08T07:25:24;96146.47;;;21.82;37.64
72409;BME280;60402;48.082;11.628;2023-10-08T07:28:10;96126.47;;;21.17;39.02
72409;BME280;60402;48.082;11.628;2023-10-08T07:30:57;96134.22;;;21.11;39.28
72409;BME280;60402;48.082;11.628;2023-10-08T07:33:44;96130.22;;;21.79;38.01
72409;BME280;60402;48.082;11.628;2023-10-08T07:36:29;96120.19;;;22.93;36.69
72409;BME280;60402;48.082;11.628;2023-10-08T07:39:17;96113.97;;;23.86;34.34
72409;BME280;60402;48.082;11.628;2023-10-08T07:42:18;96119.97;;;24.59;33.80
72409;BME280;60402;48.082;11.628;2023-10-08T07:45:04;96111.53;;;24.39;33.75
72409;BME280;60402;48.082;11.628;2023-10-08T07:47:50;96106.34;;;23.83;34.45
72409;BME280;60402;48.082;11.628;2023-10-08T07:50:41;96111.47;;;23.19;35.84
72409;BME280;60402;48.082;11.628;2023-10-08T07:53:27;96124.50;;;23.09;35.27
72409;BME280;60402;48.082;11.628;2023-10-08T07:56:23;96121.84;;;22.02;36.77
72409;BME280;60402;48.082;11.628;2023-10-08T07:59:11;96133.16;;;21.44;38.53
72409;BME280;60402;48.082;11.628;2023-10-08T08:02:00;96133.72;;;21.13;39.56
72409;BME280;60402;48.082;11.628;2023-10-08T08:04:45;96132.47;;;20.99;39.76
72409;BME280;60402;48.082;11.628;2023-10-08T08:07:36;96145.66;;;20.47;40.84
72409;BME280;60402;48.082;11.628;2023-10-08T08:10:22;96128.63;;;20.28;40.77
72409;BME280;60402;48.082;11.628;2023-10-08T08:13:08;96149.59;;;20.20;41.58
72409;BME280;60402;48.082;11.628;2023-10-08T08:15:57;96127.09;;;20.03;41.86
72409;BME280;60402;48.082;11.628;2023-10-08T08:18:54;96122.06;;;20.13;42.22
72409;BME280;60402;48.082;11.628;2023-10-08T08:21:43;96138.38;;;20.07;42.46
72409;BME280;60402;48.082;11.628;2023-10-08T08:24:30;96139.44;;;19.95;42.64
72409;BME280;60402;48.082;11.628;2023-10-08T08:27:21;96129.59;;;19.72;43.37
72409;BME280;60402;48.082;11.628;2023-10-08T08:30:10;96144.44;;;19.85;43.51
72409;BME280;60402;48.082;11.628;2023-10-08T08:32:56;96145.63;;;19.78;44.01
72409;BME280;60402;48.082;11.628;2023-10-08T08:35:42;96138.09;;;19.57;45.09
72409;BME280;60402;48.082;11.628;2023-10-08T08:38:27;96145.78;;;19.60;44.73
72409;BME280;60402;48.082;11.628;2023-10-08T08:41:18;96162.44;;;19.85;43.65
72409;BME280;60402;48.082;11.628;2023-10-08T08:44:05;96140.06;;;19.75;43.95
72409;BME280;60402;48.082;11.628;2023-10-08T08:46:52;96143.31;;;19.44;44.76
72409;BME280;60402;48.082;11.628;2023-10-08T08:49:39;96161.97;;;19.39;46.22
72409;BME280;60402;48.082;11.628;2023-10-08T08:52:25;96168.78;;;19.41;45.97
72409;BME280;60402;48.082;11.628;2023-10-08T08:55:10;96174.09;;;19.34;46.51
72409;BME280;60402;48.082;11.628;2023-10-08T08:58:02;96166.59;;;19.36;46.43
72409;BME280;60402;48.082;11.628;2023-10-08T09:00:52;96158.91;;;19.42;45.99
72409;BME280;60402;48.082;11.628;2023-10-08T09:03:38;96146.75;;;19.48;45.82
72409;BME280;60402;48.082;11.628;2023-10-08T09:06:24;96161.25;;;19.53;45.97
72409;BME280;60402;48.082;11.628;2023-10-08T09:09:10;96150.84;;;19.56;45.79
72409;BME280;60402;48.082;11.628;2023-10-08T09:12:07;96142.44;;;19.52;45.50
72409;BME280;60402;48.082;11.628;2023-10-08T09:15:01;96131.47;;;19.51;45.66
72409;BME280;60402;48.082;11.628;2023-10-08T09:17:48;96125.69;;;19.60;45.52
72409;BME280;60402;48.082;11.628;2023-10-08T09:20:37;96120.69;;;19.70;45.36
72409;BME280;60402;48.082;11.628;2023-10-08T09:23:29;96143.19;;;19.86;45.12
72409;BME280;60402;48.082;11.628;2023-10-08T09:26:17;96160.34;;;19.95;44.95
72409;BME280;60402;48.082;11.628;2023-10-08T09:29:06;96133.66;;;19.80;45.21
72409;BME280;60402;48.082;11.628;2023-10-08T09:31:55;96163.00;;;19.99;45.35
72409;BME280;60402;48.082;11.628;2023-10-08T09:34:41;96172.69;;;20.01;45.80
72409;BME280;60402;48.082;11.628;2023-10-08T09:37:28;96173.19;;;20.00;46.12
72409;BME280;60402;48.082;11.628;2023-10-08T09:40:16;96159.59;;;19.85;46.68
72409;BME280;60402;48.082;11.628;2023-10-08T09:43:06;96166.25;;;19.91;46.68
72409;BME280;60402;48.082;11.628;2023-10-08T09:46:02;96186.25;;;20.01;47.48
72409;BME280;60402;48.082;11.628;2023-10-08T09:48:52;96181.91;;;20.05;47.62
72409;BME280;60402;48.082;11.628;2023-10-08T09:51:43;96166.00;;;20.04;47.44
72409;BME280;60402;48.082;11.628;2023-10-08T09:54:31;96181.16;;;20.20;48.00
72409;BME280;60402;48.082;11.628;2023-10-08T09:57:23;96179.38;;;20.37;48.03
72409;BME280;60402;48.082;11.628;2023-10-08T10:00:13;96173.63;;;20.61;47.69
72409;BME280;60402;48.082;11.628;2023-10-08T10:03:04;96202.22;;;20.85;47.14
72409;BME280;60402;48.082;11.628;2023-10-08T10:05:50;96192.22;;;20.95;47.20
72409;BME280;60402;48.082;11.628;2023-10-08T10:08:36;96201.09;;;21.27;46.33
72409;BME280;60402;48.082;11.628;2023-10-08T10:11:25;96207.91;;;21.29;46.14
72409;BME280;60402;48.082;11.628;2023-10-08T10:14:12;96197.31;;;21.35;46.78
72409;BME280;60402;48.082;11.628;2023-10-08T10:17:08;96219.59;;;21.40;46.41
72409;BME280;60402;48.082;11.628;2023-10-08T10:20:00;96212.28;;;21.39;45.92
72409;BME280;60402;48.082;11.628;2023-10-08T10:22:46;96200.97;;;21.21;46.48
72409;BME280;60402;48.082;11.628;2023-10-08T10:25:34;96205.94;;;21.21;46.68
72409;BME280;60402;48.082;11.628;2023-10-08T10:28:22;96210.19;;;21.25;46.31
72409;BME280;60402;48.082;11.628;2023-10-08T10:31:19;96225.00;;;21.18;46.87
72409;BME280;60402;48.082;11.628;2023-10-08T10:34:08;96223.00;;;21.24;47.33
72409;BME280;60402;48.082;11.628;2023-10-08T10:36:56;96226.28;;;21.32;47.28
72409;BME280;60402;48.082;11.628;2023-10-08T10:39:52;96230.50;;;21.22;47.16
72409;BME280;60402;48.082;11.628;2023-10-08T10:42:40;96220.06;;;20.89;47.71
72409;BME280;60402;48.082;11.628;2023-10-08T10:45:29;96224.19;;;20.88;47.11
72409;BME280;60402;48.082;11.628;2023-10-08T10:48:21;96216.47;;;20.64;49.12
72409;BME280;60402;48.082;11.628;2023-10-08T10:51:08;96206.47;;;20.60;48.55
72409;BME280;60402;48.082;11.628;2023-10-08T10:53:57;96231.06;;;20.76;48.61
72409;BME280;60402;48.082;11.628;2023-10-08T10:56:52;96230.63;;;20.68;48.86
72409;BME280;60402;48.082;11.628;2023-10-08T10:59:51;96227.06;;;20.58;48.92
72409;BME280;60402;48.082;11.628;2023-10-08T11:02:39;96214.50;;;20.71;49.02
72409;BME280;60402;48.082;11.628;2023-10-08T11:05:31;96200.81;;;20.51;49.72
72409;BME280;60402;48.082;11.628;2023-10-08T11:08:19;96217.16;;;20.59;49.07
72409;BME280;60402;48.082;11.628;2023-10-08T11:11:05;96204.34;;;20.46;48.85
72409;BME280;60402;48.082;11.628;2023-10-08T11:13:50;96213.41;;;20.68;48.95
72409;BME280;60402;48.082;11.628;2023-10-08T11:16:42;96192.09;;;20.60;49.31
72409;BME280;60402;48.082;11.628;2023-10-08T11:19:31;96200.06;;;20.41;50.09
72409;BME280;60402;48.082;11.628;2023-10-08T11:22:18;96184.47;;;20.42;50.17
72409;BME280;60402;48.082;11.628;2023-10-08T11:25:28;96183.34;;;20.39;50.65
72409;BME280;60402;48.082;11.628;2023-10-08T11:28:16;96199.28;;;20.40;50.17
72409;BME280;60402;48.082;11.628;2023-10-08T11:31:04;96181.34;;;20.31;50.63
72409;BME280;60402;48.082;11.628;2023-10-08T11:33:59;96167.88;;;20.22;50.61
72409;BME280;60402;48.082;11.628;2023-10-08T11:36:45;96198.25;;;20.53;50.51
72409;BME280;60402;48.082;11.628;2023-10-08T11:39:39;96192.66;;;20.34;51.43
72409;BME280;60402;48.082;11.628;2023-10-08T11:42:30;96187.88;;;20.31;51.68
72409;BME280;60402;48.082;11.628;2023-10-08T11:45:22;96189.06;;;20.25;52.51
72409;BME280;60402;48.082;11.628;2023-10-08T11:48:12;96198.75;;;20.27;52.51
72409;BME280;60402;48.082;11.628;2023-10-08T11:50:58;96182.22;;;20.22;52.22
72409;BME280;60402;48.082;11.628;2023-10-08T11:53:46;96178.75;;;20.18;52.12
72409;BME280;60402;48.082;11.628;2023-10-08T11:56:33;96179.56;;;20.19;52.45
72409;BME280;60402;48.082;11.628;2023-10-08T11:59:19;96173.34;;;20.20;51.87
72409;BME280;60402;48.082;11.628;2023-10-08T12:02:06;96178.38;;;20.25;52.15
72409;BME280;60402;48.082;11.628;2023-10-08T12:04:51;96178.38;;;20.25;51.54
72409;BME280;60402;48.082;11.628;2023-10-08T12:07:37;96177.72;;;20.45;51.42
72409;BME280;60402;48.082;11.628;2023-10-08T12:10:25;96186.31;;;20.45;51.21
72409;BME280;60402;48.082;11.628;2023-10-08T12:13:11;96178.16;;;20.53;50.78
72409;BME280;60402;48.082;11.628;2023-10-08T12:15:56;96166.03;;;20.34;50.62
72409;BME280;60402;48.082;11.628;2023-10-08T12:18:51;96186.78;;;20.53;50.70
72409;BME280;60402;48.082;11.628;2023-10-08T12:21:45;96162.56;;;20.45;50.66
72409;BME280;60402;48.082;11.628;2023-10-08T12:24:32;96188.84;;;20.52;50.67
72409;BME280;60402;48.082;11.628;2023-10-08T12:27:19;96162.06;;;20.31;50.93
72409;BME280;60402;48.082;11.628;2023-10-08T12:30:05;96176.22;;;20.35;51.41
72409;BME280;60402;48.082;11.628;2023-10-08T12:32:59;96166.91;;;20.25;50.90
72409;BME280;60402;48.082;11.628;2023-10-08T12:35:48;96182.56;;;20.24;51.31
72409;BME280;60402;48.082;11.628;2023-10-08T12:38:34;96165.09;;;20.13;51.61
72409;BME280;60402;48.082;11.628;2023-10-08T12:41:20;96176.97;;;20.06;51.90
72409;BME280;60402;48.082;11.628;2023-10-08T12:44:06;96175.69;;;20.07;51.71
72409;BME280;60402;48.082;11.628;2023-10-08T12:46:54;96187.44;;;20.09;52.19
72409;BME280;60402;48.082;11.628;2023-10-08T12:49:41;96189.41;;;20.03;52.86
72409;BME280;60402;48.082;11.628;2023-10-08T12:52:27;96179.31;;;19.92;53.44
72409;BME280;60402;48.082;11.628;2023-10-08T12:55:13;96163.56;;;19.88;52.94
72409;BME280;60402;48.082;11.628;2023-10-08T12:57:59;96162.66;;;19.82;53.19
72409;BME280;60402;48.082;11.628;2023-10-08T13:00:55;96153.34;;;19.72;53.54
72409;BME280;60402;48.082;11.628;2023-10-08T13:03:48;96170.69;;;19.92;53.17
72409;BME280;60402;48.082;11.628;2023-10-08T13:06:35;96147.75;;;19.92;53.46
72409;BME280;60402;48.082;11.628;2023-10-08T13:09:24;96127.06;;;19.88;52.92
72409;BME280;60402;48.082;11.628;2023-10-08T13:12:10;96140.16;;;20.04;52.20
72409;BME280;60402;48.082;11.628;2023-10-08T13:14:55;96129.50;;;20.05;52.32
72409;BME280;60402;48.082;11.628;2023-10-08T13:17:41;96119.50;;;20.00;52.21
72409;BME280;60402;48.082;11.628;2023-10-08T13:23:18;96128.81;;;20.10;52.20
72409;BME280;60402;48.082;11.628;2023-10-08T13:26:06;96147.41;;;20.29;52.01
72409;BME280;60402;48.082;11.628;2023-10-08T13:28:54;96150.47;;;20.26;52.33
72409;BME280;60402;48.082;11.628;2023-10-08T13:31:40;96135.63;;;20.12;52.65
72409;BME280;60402;48.082;11.628;2023-10-08T13:34:26;96128.47;;;20.08;53.08
72409;BME280;60402;48.082;11.628;2023-10-08T13:37:12;96139.09;;;20.16;53.42
72409;BME280;60402;48.082;11.628;2023-10-08T13:39:59;96134.94;;;20.17;53.01
72409;BME280;60402;48.082;11.628;2023-10-08T13:42:46;96147.03;;;20.36;52.43
72409;BME280;60402;48.082;11.628;2023-10-08T13:45:32;96140.59;;;20.41;52.06
72409;BME280;60402;48.082;11.628;2023-10-08T13:48:22;96171.81;;;20.49;52.13
72409;BME280;60402;48.082;11.628;2023-10-08T13:51:10;96174.69;;;20.49;52.53
72409;BME280;60402;48.082;11.628;2023-10-08T13:54:05;96163.75;;;20.38;52.95
72409;BME280;60402;48.082;11.628;2023-10-08T13:56:56;96162.97;;;20.37;52.85
72409;BME280;60402;48.082;11.628;2023-10-08T13:59:42;96172.84;;;20.36;53.23
72409;BME280;60402;48.082;11.628;2023-10-08T14:02:28;96167.63;;;20.35;52.70
72409;BME280;60402;48.082;11.628;2023-10-08T14:05:15;96172.16;;;20.41;52.69
72409;BME280;60402;48.082;11.628;2023-10-08T14:08:01;96173.78;;;20.42;53.11
72409;BME280;60402;48.082;11.628;2023-10-08T14:10:48;96169.28;;;20.41;52.80
72409;BME280;60402;48.082;11.628;2023-10-08T14:13:33;96169.69;;;20.34;53.49
72409;BME280;60402;48.082;11.628;2023-10-08T14:16:21;96177.25;;;20.47;53.46
72409;BME280;60402;48.082;11.628;2023-10-08T14:19:14;96155.25;;;20.43;53.22
72409;BME280;60402;48.082;11.628;2023-10-08T14:21:59;96168.81;;;20.43;52.53
72409;BME280;60402;48.082;11.628;2023-10-08T14:24:48;96162.28;;;20.42;53.08
72409;BME280;60402;48.082;11.628;2023-10-08T14:27:43;96156.31;;;20.31;53.22
72409;BME280;60402;48.082;11.628;2023-10-08T14:30:37;96159.19;;;20.31;53.37
72409;BME280;60402;48.082;11.628;2023-10-08T14:33:26;96159.59;;;20.24;54.06
72409;BME280;60402;48.082;11.628;2023-10-08T14:36:16;96145.50;;;20.11;54.67
72409;BME280;60402;48.082;11.628;2023-10-08T14:39:21;96147.59;;;20.11;54.55
72409;BME280;60402;48.082;11.628;2023-10-08T14:42:25;96152.53;;;20.10;54.44
72409;BME280;60402;48.082;11.628;2023-10-08T14:45:30;96153.44;;;20.16;54.10
72409;BME280;60402;48.082;11.628;2023-10-08T14:48:17;96147.09;;;20.12;53.95